createdAt,value
2023-02-07T00:01:23.426Z,103718.00
2023-02-07T00:03:52.287Z,103716.34
2023-02-07T00:06:23.839Z,103717.97
2023-02-07T00:08:52.980Z,103722.25
2023-02-07T00:11:23.090Z,103723.06
2023-02-07T00:13:53.401Z,103725.41
2023-02-07T00:16:22.313Z,103712.44
2023-02-07T00:18:52.168Z,103715.34
2023-02-07T00:21:24.176Z,103717.72
2023-02-07T00:23:53.238Z,103721.22
2023-02-07T00:26:23.277Z,103720.06
2023-02-07T00:28:52.559Z,103707.94
2023-02-07T00:31:22.723Z,103703.06
2023-02-07T00:33:52.349Z,103705.19
2023-02-07T00:36:24.811Z,103709.41
2023-02-07T00:38:52.708Z,103709.41
2023-02-07T00:41:20.709Z,103706.38
2023-02-07T00:43:48.976Z,103709.00
2023-02-07T00:46:17.913Z,103706.66
2023-02-07T00:48:46.407Z,103705.25
2023-02-07T00:51:15.225Z,103703.16
2023-02-07T00:53:48.038Z,103703.44
2023-02-07T00:56:16.833Z,103702.94
2023-02-07T00:58:44.718Z,103700.91
2023-02-07T01:01:13.812Z,103707.59
2023-02-07T01:03:42.074Z,103713.25
2023-02-07T01:06:11.471Z,103713.22
2023-02-07T01:08:39.535Z,103706.06
2023-02-07T01:11:10.965Z,103697.31
2023-02-07T01:13:39.822Z,103704.84
2023-02-07T01:16:08.263Z,103705.94
2023-02-07T01:18:36.240Z,103710.66
2023-02-07T01:21:15.588Z,103703.66
2023-02-07T01:23:43.720Z,103704.94
2023-02-07T01:26:13.123Z,103709.09
2023-02-07T01:28:41.271Z,103699.44
2023-02-07T01:31:09.764Z,103710.31
2023-02-07T01:33:38.603Z,103702.59
2023-02-07T01:36:08.156Z,103677.75
2023-02-07T01:38:36.247Z,103677.06
2023-02-07T01:41:04.669Z,103686.06
2023-02-07T01:43:34.306Z,103683.47
2023-02-07T01:46:02.282Z,103685.16
2023-02-07T01:48:35.079Z,103691.94
2023-02-07T01:51:07.558Z,103692.97
2023-02-07T01:53:38.580Z,103696.94
2023-02-07T01:56:17.653Z,103696.84
2023-02-07T01:58:56.821Z,103696.03
2023-02-07T02:01:26.360Z,103689.13
2023-02-07T02:03:57.046Z,103683.06
2023-02-07T02:06:28.365Z,103687.00
2023-02-07T02:08:59.029Z,103677.28
2023-02-07T02:11:57.743Z,103677.75
2023-02-07T02:14:43.298Z,103675.59
2023-02-07T02:17:22.388Z,103673.72
2023-02-07T02:20:28.748Z,103673.59
2023-02-07T02:23:14.153Z,103678.88
2023-02-07T02:26:22.837Z,103678.97
2023-02-07T02:29:29.614Z,103681.47
2023-02-07T02:32:24.636Z,103673.00
2023-02-07T02:34:59.717Z,103665.72
2023-02-07T02:37:35.370Z,103666.13
2023-02-07T02:40:09.574Z,103674.41
2023-02-07T02:42:43.391Z,103664.72
2023-02-07T02:45:15.743Z,103663.31
2023-02-07T02:47:47.451Z,103659.59
2023-02-07T02:50:27.777Z,103654.47
2023-02-07T02:52:55.764Z,103647.22
2023-02-07T02:55:46.531Z,103649.72
2023-02-07T02:58:27.783Z,103650.31
2023-02-07T03:01:10.751Z,103652.94
2023-02-07T03:03:55.934Z,103647.56
2023-02-07T03:06:53.624Z,103648.00
2023-02-07T03:09:32.236Z,103654.78
2023-02-07T03:12:08.107Z,103636.31
2023-02-07T03:14:46.664Z,103642.19
2023-02-07T03:17:21.971Z,103644.53
2023-02-07T03:19:56.381Z,103635.25
2023-02-07T03:22:29.334Z,103625.38
2023-02-07T03:25:00.286Z,103625.50
2023-02-07T03:27:31.240Z,103627.09
2023-02-07T03:30:02.027Z,103630.84
2023-02-07T03:32:34.851Z,103626.13
2023-02-07T03:35:09.833Z,103630.63
2023-02-07T03:37:41.826Z,103637.47
2023-02-07T03:40:11.344Z,103629.56
2023-02-07T03:42:42.658Z,103629.53
2023-02-07T03:45:15.657Z,103635.31
2023-02-07T03:47:43.549Z,103638.25
2023-02-07T03:50:12.692Z,103636.47
2023-02-07T03:52:42.063Z,103648.16
2023-02-07T03:55:10.689Z,103644.63
2023-02-07T03:57:38.713Z,103640.22
2023-02-07T04:00:08.054Z,103634.13
2023-02-07T04:02:42.322Z,103635.72
2023-02-07T04:05:12.352Z,103642.66
2023-02-07T04:07:40.361Z,103650.09
2023-02-07T04:10:11.733Z,103648.91
2023-02-07T04:12:39.805Z,103644.34
2023-02-07T04:15:09.697Z,103642.97
2023-02-07T04:17:37.818Z,103644.25
2023-02-07T04:20:09.139Z,103648.31
2023-02-07T04:22:37.044Z,103649.16
2023-02-07T04:25:06.682Z,103648.66
2023-02-07T04:27:38.643Z,103651.53
2023-02-07T04:30:07.446Z,103647.19
2023-02-07T04:32:35.567Z,103643.03
2023-02-07T04:35:03.875Z,103640.16
2023-02-07T04:37:31.916Z,103640.66
2023-02-07T04:39:59.890Z,103638.84
2023-02-07T04:42:27.873Z,103636.56
2023-02-07T04:44:57.184Z,103637.47
2023-02-07T04:47:25.196Z,103635.28
2023-02-07T04:49:53.130Z,103638.66
2023-02-07T04:52:21.024Z,103634.47
2023-02-07T04:54:48.970Z,103639.50
2023-02-07T04:57:17.382Z,103639.97
2023-02-07T04:59:45.279Z,103651.34
2023-02-07T05:02:14.648Z,103656.75
2023-02-07T05:04:42.564Z,103659.88
2023-02-07T05:07:10.498Z,103652.69
2023-02-07T05:09:38.454Z,103646.28
2023-02-07T05:12:06.580Z,103648.66
2023-02-07T05:14:34.672Z,103656.94
2023-02-07T05:17:02.653Z,103660.25
2023-02-07T05:19:32.479Z,103655.47
2023-02-07T05:22:00.644Z,103649.34
2023-02-07T05:24:28.703Z,103656.09
2023-02-07T05:26:56.612Z,103651.09
2023-02-07T05:29:24.607Z,103647.22
2023-02-07T05:32:12.187Z,103653.25
2023-02-07T05:34:41.565Z,103655.28
2023-02-07T05:37:09.550Z,103653.75
2023-02-07T05:39:37.451Z,103663.06
2023-02-07T05:42:05.556Z,103663.81
2023-02-07T05:44:36.484Z,103659.56
2023-02-07T05:47:04.521Z,103666.44
2023-02-07T05:49:32.745Z,103670.63
2023-02-07T05:52:02.066Z,103663.19
2023-02-07T05:54:29.975Z,103669.75
2023-02-07T05:56:57.997Z,103666.00
2023-02-07T05:59:26.003Z,103666.84
2023-02-07T06:01:54.009Z,103676.56
2023-02-07T06:04:21.960Z,103676.69
2023-02-07T06:06:49.876Z,103671.50
2023-02-07T06:09:19.594Z,103682.19
2023-02-07T06:11:47.493Z,103675.09
2023-02-07T06:14:15.411Z,103673.59
2023-02-07T06:16:43.644Z,103682.63
2023-02-07T06:19:12.949Z,103677.34
2023-02-07T06:21:46.390Z,103685.09
2023-02-07T06:24:15.080Z,103689.91
2023-02-07T06:26:46.637Z,103697.59
2023-02-07T06:29:14.711Z,103703.47
2023-02-07T06:31:42.738Z,103701.88
2023-02-07T06:34:11.015Z,103702.63
2023-02-07T06:36:39.340Z,103690.75
2023-02-07T06:39:07.497Z,103684.34
2023-02-07T06:41:35.500Z,103694.09
2023-02-07T06:44:05.850Z,103695.34
2023-02-07T06:46:34.649Z,103695.03
2023-02-07T06:49:02.820Z,103696.97
2023-02-07T06:51:30.966Z,103703.84
2023-02-07T06:53:59.708Z,103701.56
2023-02-07T06:56:28.510Z,103702.44
2023-02-07T06:58:56.456Z,103701.78
2023-02-07T07:01:26.109Z,103695.28
2023-02-07T07:03:56.682Z,103698.69
2023-02-07T07:06:24.882Z,103700.50
2023-02-07T07:08:53.149Z,103703.00
2023-02-07T07:11:21.555Z,103693.47
2023-02-07T07:13:49.624Z,103698.41
2023-02-07T07:16:17.670Z,103702.81
2023-02-07T07:18:47.058Z,103706.91
2023-02-07T07:21:15.253Z,103703.25
2023-02-07T07:23:43.220Z,103692.13
2023-02-07T07:26:11.368Z,103683.13
2023-02-07T07:28:39.400Z,103670.56
2023-02-07T07:31:09.053Z,103667.91
2023-02-07T07:33:38.035Z,103679.81
2023-02-07T07:36:09.831Z,103677.38
2023-02-07T07:41:11.231Z,103677.88
2023-02-07T07:43:39.299Z,103677.41
2023-02-07T07:46:07.821Z,103680.91
2023-02-07T07:48:36.301Z,103682.09
2023-02-07T07:51:04.491Z,103690.22
2023-02-07T07:53:33.822Z,103689.34
2023-02-07T07:56:01.882Z,103688.22
2023-02-07T07:58:30.541Z,103690.41
2023-02-07T08:00:58.618Z,103696.13
2023-02-07T08:03:27.268Z,103696.25
2023-02-07T08:05:55.842Z,103709.16
2023-02-07T08:08:24.107Z,103706.03
2023-02-07T08:10:54.096Z,103704.16
2023-02-07T08:13:22.596Z,103708.78
2023-02-07T08:15:50.874Z,103704.03
2023-02-07T08:18:18.985Z,103701.66
2023-02-07T08:20:47.251Z,103706.00
2023-02-07T08:23:15.483Z,103711.19
2023-02-07T08:25:44.660Z,103701.50
2023-02-07T08:28:14.884Z,103710.81
2023-02-07T08:30:43.299Z,103706.81
2023-02-07T08:33:11.453Z,103710.25
2023-02-07T08:35:39.455Z,103707.44
2023-02-07T08:38:07.666Z,103693.38
2023-02-07T08:40:36.365Z,103700.06
2023-02-07T08:43:06.989Z,103698.63
2023-02-07T08:45:36.654Z,103693.81
2023-02-07T08:48:05.197Z,103694.34
2023-02-07T08:50:33.280Z,103693.06
2023-02-07T08:53:01.357Z,103693.56
2023-02-07T08:55:29.625Z,103697.31
2023-02-07T08:57:57.680Z,103692.31
2023-02-07T09:00:25.681Z,103696.81
2023-02-07T09:02:55.011Z,103693.41
2023-02-07T09:05:23.009Z,103698.41
2023-02-07T09:07:51.225Z,103690.88
2023-02-07T09:10:19.318Z,103696.84
2023-02-07T09:12:47.363Z,103684.56
2023-02-07T09:15:15.464Z,103678.47
2023-02-07T09:17:43.642Z,103688.22
2023-02-07T09:20:13.900Z,103684.59
2023-02-07T09:22:55.778Z,103682.59
2023-02-07T09:25:23.934Z,103682.59
2023-02-07T09:27:52.236Z,103701.16
2023-02-07T09:30:20.330Z,103700.72
2023-02-07T09:32:48.610Z,103696.44
2023-02-07T09:35:18.181Z,103694.25
2023-02-07T09:37:49.781Z,103699.50
2023-02-07T09:40:20.408Z,103705.38
2023-02-07T09:42:56.625Z,103706.13
2023-02-07T09:45:30.798Z,103703.13
2023-02-07T09:48:04.241Z,103702.56
2023-02-07T09:50:38.407Z,103702.69
2023-02-07T09:53:15.680Z,103708.09
2023-02-07T09:55:50.279Z,103713.47
2023-02-07T09:58:22.393Z,103710.72
2023-02-07T10:00:59.364Z,103712.97
2023-02-07T10:03:29.489Z,103733.69
2023-02-07T10:06:16.995Z,103735.53
2023-02-07T10:08:47.265Z,103731.72
2023-02-07T10:11:22.225Z,103736.84
2023-02-07T10:14:07.240Z,103738.84
2023-02-07T10:16:51.458Z,103743.91
2023-02-07T10:19:33.833Z,103733.13
2023-02-07T10:22:16.670Z,103735.06
2023-02-07T10:25:12.947Z,103736.44
2023-02-07T10:27:51.826Z,103731.03
2023-02-07T10:30:26.914Z,103731.28
2023-02-07T10:32:55.380Z,103727.75
2023-02-07T10:35:32.129Z,103729.47
2023-02-07T10:38:03.612Z,103717.75
2023-02-07T10:40:37.669Z,103715.53
2023-02-07T10:43:11.781Z,103718.28
2023-02-07T10:45:43.072Z,103723.47
2023-02-07T10:48:15.552Z,103721.13
2023-02-07T10:50:44.898Z,103718.63
2023-02-07T10:53:54.257Z,103723.03
2023-02-07T10:56:25.566Z,103725.81
2023-02-07T10:58:54.190Z,103713.28
2023-02-07T11:01:24.333Z,103713.59
2023-02-07T11:03:52.920Z,103716.81
2023-02-07T11:06:27.687Z,103721.56
2023-02-07T11:09:21.031Z,103713.22
2023-02-07T11:11:50.678Z,103722.63
2023-02-07T11:14:26.332Z,103715.88
2023-02-07T11:16:55.606Z,103713.22
2023-02-07T11:19:27.691Z,103718.75
2023-02-07T11:22:07.042Z,103709.53
2023-02-07T11:24:38.979Z,103715.59
2023-02-07T11:27:12.737Z,103723.03
2023-02-07T11:29:47.740Z,103712.22
2023-02-07T11:32:17.129Z,103717.44
2023-02-07T11:34:49.122Z,103724.00
2023-02-07T11:37:29.671Z,103717.41
2023-02-07T11:40:23.453Z,103712.94
2023-02-07T11:42:59.821Z,103702.66
2023-02-07T11:45:29.246Z,103699.84
2023-02-07T11:47:59.983Z,103700.47
2023-02-07T11:50:31.351Z,103693.50
2023-02-07T11:53:01.268Z,103702.75
2023-02-07T11:55:35.054Z,103692.72
2023-02-07T11:58:10.366Z,103686.94
2023-02-07T12:00:39.680Z,103690.28
2023-02-07T12:03:15.295Z,103686.63
2023-02-07T12:05:47.359Z,103690.78
2023-02-07T12:08:19.568Z,103684.72
2023-02-07T12:10:53.780Z,103686.16
2023-02-07T12:13:25.302Z,103684.53
2023-02-07T12:15:57.453Z,103687.66
2023-02-07T12:18:30.621Z,103692.06
2023-02-07T12:21:05.699Z,103684.53
2023-02-07T12:23:43.630Z,103678.69
2023-02-07T12:26:23.016Z,103670.75
2023-02-07T12:29:13.285Z,103677.78
2023-02-07T12:31:51.854Z,103668.53
2023-02-07T12:34:28.678Z,103663.47
2023-02-07T12:37:04.436Z,103663.41
2023-02-07T12:39:41.925Z,103659.19
2023-02-07T12:42:29.352Z,103663.91
2023-02-07T12:45:01.517Z,103646.25
2023-02-07T12:47:43.906Z,103644.69
2023-02-07T12:50:24.675Z,103638.63
2023-02-07T12:53:02.892Z,103635.38
2023-02-07T12:55:43.508Z,103633.75
2023-02-07T12:58:31.461Z,103631.38
2023-02-07T13:01:06.075Z,103636.16
2023-02-07T13:08:16.948Z,103641.66
2023-02-07T13:10:56.360Z,103641.38
2023-02-07T13:13:30.058Z,103640.53
2023-02-07T13:16:04.390Z,103630.34
2023-02-07T13:18:40.738Z,103634.91
2023-02-07T13:21:18.729Z,103634.09
2023-02-07T13:23:49.473Z,103635.63
2023-02-07T13:26:21.211Z,103635.97
2023-02-07T13:28:55.250Z,103636.69
2023-02-07T13:31:28.773Z,103634.75
2023-02-07T13:33:56.955Z,103628.34
2023-02-07T13:36:42.294Z,103623.56
2023-02-07T13:39:25.346Z,103617.19
2023-02-07T13:42:04.054Z,103618.78
2023-02-07T13:44:40.559Z,103616.53
2023-02-07T13:47:34.962Z,103613.13
2023-02-07T13:50:12.166Z,103608.63
2023-02-07T13:52:48.678Z,103608.84
2023-02-07T13:55:25.966Z,103607.13
2023-02-07T13:58:12.133Z,103601.91
2023-02-07T14:01:01.937Z,103604.50
2023-02-07T14:03:31.825Z,103595.75
2023-02-07T14:06:21.323Z,103599.16
2023-02-07T14:09:04.893Z,103591.47
2023-02-07T14:11:39.181Z,103596.69
2023-02-07T14:14:15.513Z,103602.72
2023-02-07T14:16:49.210Z,103591.47
2023-02-07T14:19:37.313Z,103595.78
2023-02-07T14:22:17.943Z,103588.91
2023-02-07T14:25:21.886Z,103592.31
2023-02-07T14:28:19.679Z,103594.13
2023-02-07T14:31:03.480Z,103589.75
2023-02-07T14:33:36.384Z,103597.59
2023-02-07T14:36:20.766Z,103600.16
2023-02-07T14:39:23.814Z,103604.50
2023-02-07T14:41:53.437Z,103594.91
2023-02-07T14:44:25.915Z,103588.00
2023-02-07T14:46:57.897Z,103585.41
2023-02-07T14:49:33.490Z,103582.78
2023-02-07T14:52:06.904Z,103574.09
2023-02-07T14:54:43.945Z,103581.06
2023-02-07T14:57:23.118Z,103581.94
2023-02-07T15:00:02.824Z,103585.41
2023-02-07T15:02:34.872Z,103574.91
2023-02-07T15:05:21.511Z,103574.81
2023-02-07T15:07:57.045Z,103573.97
2023-02-07T15:10:28.661Z,103577.41
2023-02-07T15:12:57.089Z,103567.75
2023-02-07T15:15:27.308Z,103577.31
2023-02-07T15:17:57.404Z,103576.41
2023-02-07T15:20:29.093Z,103573.84
2023-02-07T15:22:59.028Z,103567.03
2023-02-07T15:25:30.729Z,103573.84
2023-02-07T15:28:03.831Z,103575.34
2023-02-07T15:30:32.894Z,103578.81
2023-02-07T15:33:01.046Z,103565.91
2023-02-07T15:35:37.155Z,103571.97
2023-02-07T15:38:17.545Z,103574.44
2023-02-07T15:40:47.085Z,103578.81
2023-02-07T15:43:26.545Z,103577.16
2023-02-07T15:46:10.353Z,103569.97
2023-02-07T15:48:50.380Z,103563.00
2023-02-07T15:51:21.556Z,103564.50
2023-02-07T15:53:52.141Z,103569.66
2023-02-07T15:56:21.775Z,103564.44
2023-02-07T15:58:51.361Z,103563.56
2023-02-07T16:01:24.749Z,103561.72
2023-02-07T16:03:56.618Z,103565.22
2023-02-07T16:06:26.716Z,103566.69
2023-02-07T16:08:58.477Z,103559.66
2023-02-07T16:11:41.192Z,103566.19
2023-02-07T16:14:21.352Z,103560.41
2023-02-07T16:16:53.972Z,103581.00
2023-02-07T16:19:26.296Z,103573.00
2023-02-07T16:22:03.829Z,103575.47
2023-02-07T16:25:14.771Z,103570.91
2023-02-07T16:27:45.284Z,103577.06
2023-02-07T16:30:17.036Z,103577.75
2023-02-07T16:32:45.105Z,103571.19
2023-02-07T16:35:19.836Z,103571.28
2023-02-07T16:37:47.793Z,103571.19
2023-02-07T16:40:15.905Z,103581.41
2023-02-07T16:42:45.867Z,103585.75
2023-02-07T16:45:19.705Z,103586.59
2023-02-07T16:47:49.538Z,103592.69
2023-02-07T16:50:19.810Z,103585.66
2023-02-07T16:52:49.288Z,103591.47
2023-02-07T16:55:17.490Z,103592.19
2023-02-07T16:57:48.885Z,103595.66
2023-02-07T17:00:19.355Z,103601.78
2023-02-07T17:02:48.613Z,103602.66
2023-02-07T17:05:16.969Z,103596.56
2023-02-07T17:07:46.159Z,103601.69
2023-02-07T17:10:22.607Z,103597.28
2023-02-07T17:12:51.932Z,103584.88
2023-02-07T17:15:19.868Z,103579.59
2023-02-07T17:17:47.990Z,103590.22
2023-02-07T17:20:25.311Z,103587.16
2023-02-07T17:22:53.919Z,103590.16
2023-02-07T17:25:24.069Z,103589.25
2023-02-07T17:27:53.503Z,103577.66
2023-02-07T17:30:23.978Z,103579.56
2023-02-07T17:32:52.188Z,103575.31
2023-02-07T17:35:20.639Z,103578.78
2023-02-07T17:37:49.907Z,103581.00
2023-02-07T17:40:30.845Z,103586.09
2023-02-07T17:43:00.789Z,103588.66
2023-02-07T17:45:29.988Z,103597.16
2023-02-07T17:47:58.128Z,103593.69
2023-02-07T17:50:29.636Z,103599.94
2023-02-07T17:53:01.399Z,103600.22
2023-02-07T17:55:30.009Z,103601.88
2023-02-07T17:57:57.962Z,103605.22
2023-02-07T18:00:29.399Z,103599.00
2023-02-07T18:02:57.608Z,103607.25
2023-02-07T18:05:25.943Z,103590.81
2023-02-07T18:07:54.299Z,103585.75
2023-02-07T18:10:24.589Z,103585.09
2023-02-07T18:12:52.820Z,103581.72
2023-02-07T18:15:21.226Z,103588.66
2023-02-07T18:17:51.864Z,103592.84
2023-02-07T18:20:24.778Z,103593.75
2023-02-07T18:22:54.349Z,103586.09
2023-02-07T18:25:22.411Z,103593.03
2023-02-07T18:27:51.860Z,103601.66
2023-02-07T18:30:21.632Z,103594.84
2023-02-07T18:32:51.083Z,103598.34
2023-02-07T18:35:19.698Z,103605.88
2023-02-07T18:37:47.682Z,103608.28
2023-02-07T18:40:16.812Z,103605.59
2023-02-07T18:42:45.113Z,103612.84
2023-02-07T18:45:14.473Z,103624.59
2023-02-07T18:47:43.390Z,103626.81
2023-02-07T18:50:13.712Z,103623.03
2023-02-07T18:52:41.680Z,103622.16
2023-02-07T18:55:10.210Z,103631.03
2023-02-07T18:57:38.167Z,103627.53
2023-02-07T19:00:09.310Z,103627.72
2023-02-07T19:02:37.694Z,103631.06
2023-02-07T19:05:07.736Z,103630.97
2023-02-07T19:07:37.013Z,103633.56
2023-02-07T19:10:08.183Z,103634.28
2023-02-07T19:12:36.156Z,103636.25
2023-02-07T19:15:05.472Z,103631.78
2023-02-07T19:17:33.440Z,103640.03
2023-02-07T19:20:01.355Z,103641.91
2023-02-07T19:22:37.612Z,103641.38
2023-02-07T19:25:07.852Z,103642.78
2023-02-07T19:27:35.867Z,103648.16
2023-02-07T19:30:03.889Z,103641.81
2023-02-07T19:32:31.928Z,103646.03
2023-02-07T19:34:59.977Z,103650.41
2023-02-07T19:37:27.874Z,103648.56
2023-02-07T19:39:56.504Z,103659.88
2023-02-07T19:42:26.006Z,103661.47
2023-02-07T19:44:54.059Z,103652.75
2023-02-07T19:47:21.999Z,103660.72
2023-02-07T19:49:54.956Z,103662.88
2023-02-07T19:52:24.069Z,103665.50
2023-02-07T19:54:53.110Z,103668.84
2023-02-07T19:57:22.490Z,103663.75
2023-02-07T19:59:52.283Z,103659.13
2023-02-07T20:02:20.186Z,103665.09
2023-02-07T20:04:48.237Z,103671.91
2023-02-07T20:07:16.230Z,103672.03
2023-02-07T20:09:44.286Z,103666.22
2023-02-07T20:12:12.297Z,103677.97
2023-02-07T20:14:40.380Z,103679.59
2023-02-07T20:17:09.866Z,103681.19
2023-02-07T20:19:38.128Z,103679.44
2023-02-07T20:22:06.071Z,103666.63
2023-02-07T20:24:34.118Z,103670.13
2023-02-07T20:27:02.032Z,103676.63
2023-02-07T20:29:31.436Z,103676.22
2023-02-07T20:31:59.436Z,103680.34
2023-02-07T20:34:28.854Z,103671.97
2023-02-07T20:36:57.086Z,103691.03
2023-02-07T20:39:26.446Z,103678.53
2023-02-07T20:41:54.382Z,103679.34
2023-02-07T20:44:26.571Z,103689.09
2023-02-07T20:46:55.804Z,103683.78
2023-02-07T20:49:27.261Z,103685.16
2023-02-07T20:51:58.350Z,103683.44
2023-02-07T20:54:28.407Z,103686.22
2023-02-07T20:56:58.092Z,103689.31
2023-02-07T20:59:27.665Z,103690.19
2023-02-07T21:01:57.947Z,103686.66
2023-02-07T21:04:26.890Z,103687.28
2023-02-07T21:06:56.201Z,103686.84
2023-02-07T21:09:24.387Z,103683.97
2023-02-07T21:11:53.576Z,103691.56
2023-02-07T21:14:25.597Z,103687.19
2023-02-07T21:16:54.675Z,103679.44
2023-02-07T21:19:23.284Z,103676.91
2023-02-07T21:21:52.143Z,103688.00
2023-02-07T21:24:26.241Z,103688.47
2023-02-07T21:26:57.792Z,103679.34
2023-02-07T21:29:27.980Z,103684.25
2023-02-07T21:31:56.448Z,103681.22
2023-02-07T21:34:29.953Z,103677.59
2023-02-07T21:37:01.800Z,103671.06
2023-02-07T21:39:33.729Z,103674.03
2023-02-07T21:42:03.848Z,103685.41
2023-02-07T21:44:37.678Z,103679.41
2023-02-07T21:47:05.748Z,103674.53
2023-02-07T21:49:39.695Z,103681.56
2023-02-07T21:52:09.750Z,103672.78
2023-02-07T21:54:43.743Z,103674.59
2023-02-07T21:57:17.381Z,103678.06
2023-02-07T21:59:48.250Z,103680.47
2023-02-07T22:02:16.267Z,103680.13
2023-02-07T22:04:44.203Z,103674.16
2023-02-07T22:07:12.149Z,103678.47
2023-02-07T22:09:44.013Z,103668.72
2023-02-07T22:12:11.981Z,103672.97
2023-02-07T22:14:41.759Z,103677.22
2023-02-07T22:17:12.277Z,103683.69
2023-02-07T22:19:43.613Z,103676.13
2023-02-07T22:22:13.913Z,103672.16
2023-02-07T22:24:43.264Z,103676.28
2023-02-07T22:27:12.070Z,103677.88
2023-02-07T22:29:40.295Z,103678.63
2023-02-07T22:32:08.250Z,103682.97
2023-02-07T22:34:37.429Z,103679.13
2023-02-07T22:37:05.292Z,103675.75
2023-02-07T22:39:33.383Z,103665.59
2023-02-07T22:42:02.793Z,103680.41
2023-02-07T22:44:35.682Z,103678.78
2023-02-07T22:47:06.669Z,103676.03
2023-02-07T22:49:35.536Z,103688.09
2023-02-07T22:52:06.766Z,103686.38
2023-02-07T22:54:36.828Z,103672.50
2023-02-07T22:57:07.933Z,103674.28
2023-02-07T22:59:35.883Z,103675.50
2023-02-07T23:02:03.946Z,103673.41
2023-02-07T23:04:31.955Z,103674.41
2023-02-07T23:07:00.652Z,103683.09
2023-02-07T23:09:28.673Z,103678.63
2023-02-07T23:11:58.820Z,103680.75
2023-02-07T23:14:30.861Z,103673.34
2023-02-07T23:17:00.918Z,103674.38
2023-02-07T23:19:28.971Z,103676.06
2023-02-07T23:21:59.098Z,103667.81
2023-02-07T23:24:29.779Z,103670.06
2023-02-07T23:26:57.780Z,103675.50
2023-02-07T23:29:26.165Z,103671.13
2023-02-07T23:31:55.454Z,103670.84
2023-02-07T23:34:23.484Z,103674.63
2023-02-07T23:36:51.371Z,103674.00
2023-02-07T23:39:19.375Z,103673.69
2023-02-07T23:41:50.440Z,103675.97
2023-02-07T23:44:18.496Z,103676.69
2023-02-07T23:46:46.642Z,103672.66
2023-02-07T23:49:15.970Z,103666.34
2023-02-07T23:51:45.453Z,103677.81
2023-02-07T23:54:16.141Z,103670.94
2023-02-07T23:56:54.272Z,103673.84
2023-02-07T23:59:26.256Z,103672.97
